Time;durP1;ratioP1;P1;durP2;ratioP2;P2;SDS_P1;SDS_P2;PMS_P1;PMS_P2;Temp;Humidity;BMP_temperature;BMP_pressure;BME280_temperature;BME280_humidity;BME280_pressure;Samples;Min_cycle;Max_cycle;Signal;HPM_P1;HPM_P2
2023/03/11 03:26:39;;;;;;;11.32;3.45;;;;;;;-0.39;97.56;100017.88;4997098;28;20047;-78
2023/03/11 03:29:06;;;;;;;14.40;3.60;;;;;;;-0.38;97.70;100034.94;4999278;28;20070;-78
2023/03/11 03:31:34;;;;;;;12.05;3.20;;;;;;;-0.50;97.61;100020.34;4997633;28;20461;-78
2023/03/11 03:34:00;;;;;;;12.00;3.78;;;;;;;-0.45;97.19;100023.41;4984553;28;20560;-76
2023/03/11 03:36:27;;;;;;;9.68;3.45;;;;;;;-0.41;97.53;100030.00;5002304;28;20070;-78
2023/03/11 03:38:55;;;;;;;9.65;3.38;;;;;;;-0.39;97.12;100040.19;4995011;28;20432;-79
2023/03/11 03:41:21;;;;;;;12.68;3.42;;;;;;;-0.40;96.98;100041.94;4995289;28;20118;-79
2023/03/11 03:43:49;;;;;;;14.85;3.35;;;;;;;-0.45;97.12;100038.84;4988600;28;20081;-80
2023/03/11 03:46:16;;;;;;;12.93;3.53;;;;;;;-0.44;96.51;100044.78;5000058;28;20085;-79
2023/03/11 03:48:43;;;;;;;6.35;3.25;;;;;;;-0.46;96.17;100051.78;5001900;28;20054;-79
2023/03/11 03:51:13;;;;;;;11.45;3.47;;;;;;;-0.47;96.25;100057.84;5007124;28;20084;-79
2023/03/11 03:53:40;;;;;;;17.40;4.00;;;;;;;-0.51;95.88;100059.81;4995619;28;20145;-78
2023/03/11 03:56:10;;;;;;;16.25;4.13;;;;;;;-0.50;95.99;100066.59;4994552;28;20141;-79
2023/03/11 03:58:36;;;;;;;6.70;4.32;;;;;;;-0.50;95.66;100063.22;4991696;28;20497;-79
2023/03/11 04:01:05;;;;;;;9.65;3.45;;;;;;;-0.51;95.96;100070.09;4997956;28;20118;-79
2023/03/11 04:03:33;;;;;;;10.05;2.97;;;;;;;-0.54;95.36;100054.88;4988566;28;20105;-80
2023/03/11 04:06:08;;;;;;;9.00;3.30;;;;;;;-0.49;95.57;100063.13;4989918;28;20051;-78
2023/03/11 04:08:34;;;;;;;12.88;4.30;;;;;;;-0.46;95.31;100069.78;4984311;28;20082;-79
2023/03/11 04:11:01;;;;;;;10.95;3.40;;;;;;;-0.43;95.26;100074.72;4999685;28;20073;-80
2023/03/11 04:13:28;;;;;;;17.23;3.30;;;;;;;-0.37;95.08;100071.75;4985539;28;20560;-81
2023/03/11 04:15:54;;;;;;;9.05;3.20;;;;;;;-0.39;94.71;100084.69;4999047;28;20054;-78
2023/03/11 04:18:22;;;;;;;8.95;3.90;;;;;;;-0.44;94.60;100079.03;5000537;28;20487;-79
2023/03/11 04:20:49;;;;;;;10.98;3.20;;;;;;;-0.49;94.77;100073.41;4997029;28;20121;-79
2023/03/11 04:23:16;;;;;;;11.15;4.10;;;;;;;-0.46;94.54;100077.47;4991467;28;20105;-79
2023/03/11 04:25:43;;;;;;;9.18;3.70;;;;;;;-0.48;94.93;100089.63;4995271;28;20057;-77
2023/03/11 04:28:09;;;;;;;11.35;3.55;;;;;;;-0.49;95.08;100096.53;4994382;28;20105;-78
2023/03/11 04:30:36;;;;;;;15.45;3.78;;;;;;;-0.53;95.33;100095.06;4994263;28;20073;-79
2023/03/11 04:33:03;;;;;;;9.05;3.47;;;;;;;-0.60;95.37;100090.41;5001167;28;20109;-79
2023/03/11 04:35:31;;;;;;;8.65;3.75;;;;;;;-0.56;95.24;100104.72;5001629;28;20122;-77
2023/03/11 04:37:57;;;;;;;12.88;4.18;;;;;;;-0.62;95.34;100093.09;4994077;28;20121;-80
2023/03/11 04:40:24;;;;;;;11.27;3.53;;;;;;;-0.64;95.80;100102.63;4995639;28;20156;-80
2023/03/11 04:42:51;;;;;;;7.82;3.45;;;;;;;-0.69;95.35;100102.09;4987687;28;20046;-77
2023/03/11 04:45:17;;;;;;;9.88;4.22;;;;;;;-0.68;95.95;100106.31;4986830;28;20125;-77
2023/03/11 04:47:47;;;;;;;9.38;3.90;;;;;;;-0.69;96.16;100105.50;5000939;28;20068;-80
2023/03/11 04:50:14;;;;;;;12.15;3.97;;;;;;;-0.71;96.11;100109.09;5001106;28;20141;-79
2023/03/11 04:52:42;;;;;;;9.43;4.93;;;;;;;-0.66;96.15;100109.63;5002474;28;20081;-80
2023/03/11 04:55:12;;;;;;;10.68;3.70;;;;;;;-0.66;96.30;100107.06;4996439;28;20113;-81
2023/03/11 04:57:39;;;;;;;8.30;3.80;;;;;;;-0.74;96.52;100099.81;4985072;28;20034;-79
2023/03/11 05:00:09;;;;;;;9.20;3.40;;;;;;;-0.61;96.14;100122.19;4998360;28;20080;-78
2023/03/11 05:02:36;;;;;;;8.60;3.83;;;;;;;-0.59;95.91;100118.59;4995647;28;20519;-80
2023/03/11 05:05:04;;;;;;;9.85;3.70;;;;;;;-0.56;96.15;100117.56;5002793;28;20085;-80
2023/03/11 05:07:31;;;;;;;10.35;3.47;;;;;;;-0.57;96.32;100121.88;5002046;28;20109;-79
2023/03/11 05:09:59;;;;;;;8.73;3.58;;;;;;;-0.59;96.11;100115.19;4994809;28;20054;-79
2023/03/11 05:12:26;;;;;;;7.63;3.95;;;;;;;-0.59;96.08;100123.72;4991397;28;20082;-80
2023/03/11 05:14:52;;;;;;;11.30;3.70;;;;;;;-0.56;96.22;100126.09;4990360;28;20074;-80
2023/03/11 05:17:19;;;;;;;10.52;3.80;;;;;;;-0.56;96.69;100123.53;5000858;28;20090;-78
2023/03/11 05:19:46;;;;;;;7.30;3.75;;;;;;;-0.50;96.67;100136.00;4993231;28;20034;-79
2023/03/11 05:22:13;;;;;;;11.10;4.53;;;;;;;-0.54;96.96;100128.59;4999618;28;20054;-81
2023/03/11 05:24:39;;;;;;;10.50;4.60;;;;;;;-0.46;96.75;100132.28;4995950;28;20129;-80
2023/03/11 05:27:07;;;;;;;12.98;3.70;;;;;;;-0.44;96.93;100138.16;5001645;28;20101;-81
2023/03/11 05:29:34;;;;;;;15.15;4.43;;;;;;;-0.51;96.84;100125.81;4989627;28;20086;-79
2023/03/11 05:32:01;;;;;;;11.73;4.20;;;;;;;-0.46;97.05;100150.28;4989786;28;20051;-80
2023/03/11 05:34:27;;;;;;;13.25;5.97;;;;;;;-0.51;97.08;100136.91;4986844;28;20114;-82
2023/03/11 05:36:54;;;;;;;11.63;3.83;;;;;;;-0.44;97.21;100148.44;4996602;28;20114;-80
2023/03/11 05:39:20;;;;;;;10.75;3.63;;;;;;;-0.46;97.18;100147.72;5006112;28;20046;-80
2023/03/11 05:41:47;;;;;;;8.48;3.95;;;;;;;-0.49;97.05;100142.78;5002676;28;20085;-80
2023/03/11 05:44:15;;;;;;;7.43;3.83;;;;;;;-0.42;96.99;100153.47;4990887;28;20046;-80
2023/03/11 05:46:42;;;;;;;7.40;4.05;;;;;;;-0.39;96.93;100148.97;4995385;28;20129;-80
2023/03/11 05:49:09;;;;;;;8.93;4.32;;;;;;;-0.42;97.30;100162.00;4991334;28;20078;-79
2023/03/11 05:51:38;;;;;;;13.98;4.35;;;;;;;-0.50;96.57;100138.56;4989054;28;20058;-79
2023/03/11 05:54:10;;;;;;;10.80;3.75;;;;;;;-0.42;96.46;100151.72;5000820;28;20058;-79
2023/03/11 05:56:36;;;;;;;12.43;4.20;;;;;;;-0.30;96.70;100162.16;4989934;28;20121;-80
2023/03/11 05:59:03;;;;;;;9.95;4.15;;;;;;;-0.34;96.11;100154.63;5000195;28;20157;-79
2023/03/11 06:01:31;;;;;;;12.57;4.00;;;;;;;-0.28;95.62;100157.75;5001872;28;20070;-79
2023/03/11 06:03:58;;;;;;;14.65;4.97;;;;;;;-0.34;95.91;100149.50;5001902;28;20101;-79
2023/03/11 06:06:25;;;;;;;11.75;3.65;;;;;;;-0.20;95.50;100165.78;4989243;28;20457;-79
2023/03/11 06:08:51;;;;;;;16.23;4.32;;;;;;;-0.22;95.52;100160.75;4981153;28;20119;-80
2023/03/11 06:11:18;;;;;;;9.77;3.95;;;;;;;-0.21;95.37;100156.44;4988571;28;20050;-80
2023/03/11 06:13:44;;;;;;;9.57;3.95;;;;;;;-0.16;95.10;100172.38;5000302;28;20050;-78
2023/03/11 06:16:11;;;;;;;9.00;3.85;;;;;;;-0.19;94.96;100168.28;5000079;28;20151;-79
2023/03/11 06:18:39;;;;;;;10.73;4.10;;;;;;;-0.14;94.38;100175.69;4996671;28;20086;-77
2023/03/11 06:21:11;;;;;;;9.88;3.72;;;;;;;-0.04;94.55;100192.19;4991122;28;20079;-80
2023/03/11 06:23:37;;;;;;;12.55;5.20;;;;;;;0.00;94.18;100193.63;4999799;28;20106;-80
2023/03/11 06:26:05;;;;;;;14.05;6.18;;;;;;;0.06;94.27;100190.63;4999322;28;20222;-78
2023/03/11 06:28:32;;;;;;;7.82;3.47;;;;;;;0.17;93.81;100197.66;4981278;28;20043;-77
2023/03/11 06:31:07;;;;;;;13.60;4.20;;;;;;;0.27;93.25;100198.72;4995446;28;20111;-79
2023/03/11 06:33:34;;;;;;;8.73;4.00;;;;;;;0.20;93.38;100190.56;4990475;28;20115;-79
2023/03/11 06:36:04;;;;;;;15.23;4.25;;;;;;;0.30;93.13;100196.75;4991346;28;20054;-79
2023/03/11 06:38:31;;;;;;;10.43;4.40;;;;;;;0.37;92.70;100197.19;4988117;28;20913;-78
2023/03/11 06:41:00;;;;;;;8.32;3.45;;;;;;;0.46;92.29;100196.56;4994844;28;20059;-78
2023/03/11 06:43:27;;;;;;;11.25;4.53;;;;;;;0.57;92.09;100209.53;4992888;28;20050;-78
2023/03/11 06:45:53;;;;;;;11.60;4.68;;;;;;;0.55;91.77;100215.72;4999949;28;20073;-80
2023/03/11 06:48:20;;;;;;;13.15;4.00;;;;;;;0.46;91.74;100206.88;5006110;28;20046;-78
2023/03/11 06:50:54;;;;;;;8.95;3.72;;;;;;;0.50;91.68;100203.13;5000953;28;20055;-79
2023/03/11 06:53:22;;;;;;;13.43;4.40;;;;;;;0.51;91.16;100209.13;4989499;28;20042;-79
2023/03/11 06:55:59;;;;;;;11.98;4.25;;;;;;;0.39;91.14;100215.09;5001535;28;20061;-79
2023/03/11 06:58:26;;;;;;;13.02;4.47;;;;;;;0.41;91.34;100231.25;5000174;28;20046;-80
2023/03/11 07:00:52;;;;;;;10.63;4.13;;;;;;;0.46;91.28;100237.75;5002883;28;20461;-78
2023/03/11 07:03:19;;;;;;;8.40;4.30;;;;;;;0.44;91.25;100239.59;4991889;28;20090;-79
2023/03/11 07:05:49;;;;;;;12.93;4.45;;;;;;;0.61;91.72;100248.78;5007604;28;20046;-79
2023/03/11 07:08:16;;;;;;;13.00;4.35;;;;;;;0.59;92.21;100261.75;5007600;28;20050;-80
2023/03/11 07:10:49;;;;;;;12.02;4.93;;;;;;;0.82;92.10;100260.22;4999432;28;20082;-81
2023/03/11 07:13:15;;;;;;;11.88;5.05;;;;;;;1.12;92.52;100264.22;4991116;28;20054;-81
2023/03/11 07:15:45;;;;;;;15.32;5.38;;;;;;;1.05;92.06;100261.22;4995317;28;20046;-82
2023/03/11 07:18:12;;;;;;;15.73;5.32;;;;;;;0.96;92.12;100265.25;4999526;28;20054;-81
2023/03/11 07:20:38;;;;;;;11.75;5.28;;;;;;;1.15;92.32;100262.25;4988985;28;20093;-81
2023/03/11 07:23:05;;;;;;;11.05;4.78;;;;;;;2.07;90.21;100272.09;4997029;28;20057;-78
2023/03/11 07:25:32;;;;;;;9.15;4.32;;;;;;;2.87;87.54;100261.84;5001006;28;20082;-78
2023/03/11 07:28:00;;;;;;;11.02;4.25;;;;;;;3.23;85.29;100247.91;4984936;28;20325;-79
2023/03/11 07:30:26;;;;;;;13.50;4.35;;;;;;;4.12;82.30;100262.41;4993442;28;20088;-79
2023/03/11 07:32:54;;;;;;;13.30;4.60;;;;;;;4.10;81.35;100254.75;5001147;28;20046;-80
2023/03/11 07:35:21;;;;;;;10.77;4.68;;;;;;;3.80;80.80;100264.97;4991771;28;20101;-80
2023/03/11 07:37:47;;;;;;;14.65;5.10;;;;;;;3.34;81.91;100276.31;4999189;28;20152;-79
2023/03/11 07:40:16;;;;;;;8.27;4.43;;;;;;;3.44;82.36;100281.63;4990972;28;20081;-79
2023/03/11 07:42:42;;;;;;;9.52;4.43;;;;;;;3.95;80.91;100279.28;4992262;28;20077;-79
2023/03/11 07:45:11;;;;;;;8.18;4.60;;;;;;;4.14;80.32;100286.41;4991849;28;20082;-80
2023/03/11 07:47:38;;;;;;;10.50;4.72;;;;;;;4.10;79.39;100293.59;4996216;28;20081;-80
2023/03/11 07:50:06;;;;;;;12.98;5.15;;;;;;;4.94;79.14;100297.88;4989030;28;20050;-77
2023/03/11 07:52:32;;;;;;;8.07;4.20;;;;;;;4.79;78.18;100309.53;4999528;28;20078;-79
2023/03/11 07:54:59;;;;;;;12.85;4.93;;;;;;;5.21;76.60;100309.47;4996509;28;20116;-79
2023/03/11 07:57:26;;;;;;;19.20;6.07;;;;;;;5.63;76.12;100305.84;4991780;28;20082;-80
2023/03/11 07:59:53;;;;;;;11.73;4.75;;;;;;;5.45;74.92;100302.22;4999349;28;20084;-79
2023/03/11 08:02:21;;;;;;;8.73;4.68;;;;;;;5.17;74.87;100302.94;4999424;28;20058;-78
2023/03/11 08:04:47;;;;;;;11.95;5.05;;;;;;;5.11;75.28;100312.03;5001726;28;20572;-79
2023/03/11 08:07:14;;;;;;;10.90;4.93;;;;;;;5.11;75.55;100317.22;4998331;28;20070;-79
2023/03/11 08:09:40;;;;;;;14.30;4.88;;;;;;;4.87;74.66;100308.91;4994705;28;20089;-80
2023/03/11 08:12:08;;;;;;;8.07;4.70;;;;;;;5.66;73.66;100300.38;5000171;28;20086;-80
2023/03/11 08:14:35;;;;;;;11.35;4.47;;;;;;;5.95;72.73;100295.28;4998577;28;20082;-82
2023/03/11 08:17:01;;;;;;;10.82;4.57;;;;;;;6.06;72.28;100296.13;4990546;28;20054;-79
2023/03/11 08:19:29;;;;;;;7.93;4.10;;;;;;;6.43;71.24;100304.06;4987150;28;20548;-81
2023/03/11 08:21:56;;;;;;;11.68;4.50;;;;;;;6.49;70.72;100306.09;4979837;28;20058;-81
2023/03/11 08:24:22;;;;;;;7.30;4.07;;;;;;;6.96;70.30;100307.81;4988105;28;20050;-80
2023/03/11 08:26:49;;;;;;;11.93;4.38;;;;;;;7.25;69.72;100309.50;4983780;28;20138;-79
2023/03/11 08:29:16;;;;;;;12.85;5.32;;;;;;;7.12;69.28;100304.59;4989017;28;20560;-79
2023/03/11 08:32:09;;;;;;;10.32;5.25;;;;;;;7.23;69.03;100308.81;4993254;28;20125;-82
2023/03/11 08:34:46;;;;;;;7.93;4.07;;;;;;;7.21;67.77;100302.94;4993003;28;20054;-81
2023/03/11 08:37:54;;;;;;;8.60;3.78;;;;;;;7.52;66.59;100293.09;4999227;28;20428;-80
2023/03/11 08:47:46;;;;;;;13.05;4.28;;;;;;;6.51;66.67;100301.59;4835824;29;20131;-80
2023/03/11 08:50:23;;;;;;;10.07;3.58;;;;;;;6.54;66.78;100306.53;4960513;28;20058;-80
2023/03/11 08:52:50;;;;;;;12.63;4.40;;;;;;;6.43;66.82;100301.44;4992351;28;20069;-79
2023/03/11 08:55:23;;;;;;;11.98;3.90;;;;;;;6.96;66.56;100333.81;4997030;28;20110;-81
2023/03/11 08:58:06;;;;;;;10.55;4.00;;;;;;;7.03;66.54;100335.88;4991011;28;20051;-80
2023/03/11 09:00:33;;;;;;;8.23;3.92;;;;;;;7.04;66.86;100314.09;4994368;28;20042;-78
2023/03/11 09:02:59;;;;;;;10.55;4.45;;;;;;;7.05;67.40;100333.94;5000571;28;20133;-78
2023/03/11 09:05:42;;;;;;;9.73;4.25;;;;;;;7.08;68.10;100347.50;4994680;28;20420;-81
2023/03/11 09:08:19;;;;;;;7.68;4.03;;;;;;;7.12;67.47;100340.22;5002671;28;20050;-81
2023/03/11 09:10:54;;;;;;;11.50;4.20;;;;;;;7.06;66.58;100333.81;4996511;28;20050;-80
2023/03/11 09:13:38;;;;;;;7.47;4.10;;;;;;;7.16;66.66;100336.38;5001163;28;20145;-80
2023/03/11 09:16:13;;;;;;;10.20;4.15;;;;;;;6.46;67.48;100340.16;5001705;28;20451;-79
2023/03/11 09:18:40;;;;;;;11.73;3.92;;;;;;;5.96;68.38;100322.06;4993827;28;20046;-77
2023/03/11 09:21:08;;;;;;;9.35;3.83;;;;;;;6.10;69.83;100334.69;4994320;28;20098;-79
2023/03/11 09:23:36;;;;;;;10.48;4.55;;;;;;;5.91;69.98;100337.22;4997793;28;20087;-80
2023/03/11 09:26:03;;;;;;;11.05;4.20;;;;;;;6.06;70.21;100322.91;4986837;28;20079;-80
2023/03/11 09:28:30;;;;;;;9.00;4.65;;;;;;;5.51;71.32;100332.84;5000896;28;20444;-82
2023/03/11 09:30:57;;;;;;;7.60;3.00;;;;;;;5.43;66.91;100304.13;4995455;28;20137;-81
2023/03/11 09:33:24;;;;;;;11.13;3.42;;;;;;;5.65;65.58;100305.72;4981912;28;20435;-79
2023/03/11 09:35:50;;;;;;;6.53;3.28;;;;;;;5.73;65.45;100305.03;4996542;28;20202;-78
2023/03/11 09:38:18;;;;;;;11.30;3.70;;;;;;;6.00;65.59;100297.47;5001635;28;20129;-78
2023/03/11 09:41:00;;;;;;;6.32;3.33;;;;;;;6.24;66.07;100321.28;5001620;28;20074;-79
2023/03/11 09:43:45;;;;;;;6.10;3.13;;;;;;;5.88;64.27;100303.69;5004047;28;20077;-77
2023/03/11 09:46:30;;;;;;;5.07;1.98;;;;;;;5.98;60.35;100304.56;4998015;28;20129;-78
2023/03/11 09:49:09;;;;;;;4.93;2.30;;;;;;;5.56;59.16;100294.34;4981083;28;20046;-78
2023/03/11 09:51:40;;;;;;;7.95;2.70;;;;;;;5.20;60.23;100300.88;4995142;28;20109;-80
2023/03/11 09:54:11;;;;;;;6.97;3.72;;;;;;;5.00;60.86;100317.31;5001497;28;20074;-80
2023/03/11 09:56:38;;;;;;;5.78;2.40;;;;;;;4.92;59.26;100312.75;4983147;28;20086;-80
2023/03/11 09:59:09;;;;;;;7.97;3.28;;;;;;;4.99;60.92;100336.41;4984267;28;20131;-79
2023/03/11 10:01:41;;;;;;;6.13;3.22;;;;;;;5.17;61.77;100344.44;4996297;28;20093;-80
2023/03/11 10:04:13;;;;;;;5.75;2.72;;;;;;;5.47;60.51;100338.41;4994831;28;20054;-79
2023/03/11 10:06:41;;;;;;;6.55;2.90;;;;;;;5.66;60.10;100339.31;4996669;28;20055;-81
2023/03/11 10:09:27;;;;;;;5.63;2.47;;;;;;;5.22;58.27;100337.88;5000600;28;20402;-80
2023/03/11 10:12:04;;;;;;;8.70;2.85;;;;;;;5.23;59.40;100328.31;5003623;28;20460;-80
2023/03/11 10:14:55;;;;;;;9.50;2.30;;;;;;;4.97;58.15;100322.75;5002414;28;20141;-80
2023/03/11 10:17:42;;;;;;;4.20;2.33;;;;;;;5.43;58.74;100344.81;4997496;28;20054;-79
2023/03/11 10:20:13;;;;;;;8.27;2.67;;;;;;;5.40;58.48;100347.66;5003176;28;20425;-79
2023/03/11 10:22:46;;;;;;;4.10;2.60;;;;;;;5.36;59.44;100344.50;4994890;28;20086;-77
2023/03/11 10:25:16;;;;;;;6.15;2.80;;;;;;;5.76;60.79;100365.28;4994250;28;20133;-77
2023/03/11 10:27:48;;;;;;;5.97;3.00;;;;;;;5.58;59.76;100365.13;5007089;28;20050;-78
2023/03/11 10:30:23;;;;;;;7.20;3.17;;;;;;;5.39;59.95;100371.97;5005845;28;20065;-79
2023/03/11 10:32:55;;;;;;;4.03;2.60;;;;;;;5.53;59.59;100371.63;5007517;28;20185;-79
2023/03/11 10:35:23;;;;;;;6.88;2.72;;;;;;;5.61;58.70;100367.44;4995818;28;20115;-79
2023/03/11 10:37:54;;;;;;;5.38;2.47;;;;;;;5.80;59.11;100378.84;4999751;28;20458;-79
2023/03/11 10:40:27;;;;;;;6.13;2.55;;;;;;;5.45;59.10;100354.13;4998395;28;20060;-77
2023/03/11 10:42:57;;;;;;;3.10;2.38;;;;;;;4.91;59.08;100375.94;4995471;28;20085;-78
2023/03/11 10:45:25;;;;;;;9.45;4.25;;;;;;;5.31;59.84;100388.19;4997004;28;20047;-77
2023/03/11 10:47:52;;;;;;;8.13;3.03;;;;;;;5.62;59.88;100374.28;4997375;28;20058;-78
2023/03/11 10:50:20;;;;;;;8.60;3.20;;;;;;;6.15;59.21;100373.22;4996446;28;20473;-79
2023/03/11 10:53:05;;;;;;;3.65;2.90;;;;;;;6.42;57.93;100370.00;4998210;28;20046;-79
2023/03/11 10:55:35;;;;;;;6.85;2.65;;;;;;;6.60;57.60;100363.16;4997644;28;20178;-78
2023/03/11 10:58:07;;;;;;;4.82;2.40;;;;;;;6.58;57.51;100357.28;4998854;28;20089;-79
2023/03/11 11:00:33;;;;;;;4.35;2.33;;;;;;;6.63;56.23;100353.28;4998816;28;20129;-79
2023/03/11 11:03:03;;;;;;;3.60;2.35;;;;;;;6.41;56.27;100347.56;5001667;28;20042;-79
2023/03/11 11:05:32;;;;;;;7.53;2.70;;;;;;;6.52;56.28;100358.63;5001304;28;20062;-78
2023/03/11 11:08:08;;;;;;;6.50;2.85;;;;;;;6.42;57.24;100354.41;5003695;28;20066;-78
2023/03/11 11:10:37;;;;;;;10.23;2.88;;;;;;;6.33;56.83;100351.66;4999509;28;20050;-78
2023/03/11 11:13:18;;;;;;;10.13;3.20;;;;;;;6.35;57.29;100351.50;4993015;28;20047;-79
2023/03/11 11:15:58;;;;;;;8.30;4.15;;;;;;;6.59;58.06;100366.72;5005053;28;20491;-79
2023/03/11 11:18:27;;;;;;;6.13;3.38;;;;;;;6.59;58.12;100369.31;5003699;28;20118;-79
2023/03/11 11:20:59;;;;;;;5.57;3.08;;;;;;;6.42;58.27;100359.59;5007735;28;20069;-79
2023/03/11 11:23:28;;;;;;;7.93;3.78;;;;;;;6.48;58.02;100369.44;5003500;28;20057;-79
2023/03/11 11:26:02;;;;;;;7.05;2.80;;;;;;;5.92;57.39;100364.84;5007471;28;20061;-80
2023/03/11 11:28:30;;;;;;;4.97;2.72;;;;;;;5.80;58.27;100384.84;4998719;28;20066;-78
2023/03/11 11:30:59;;;;;;;5.70;2.42;;;;;;;5.81;58.08;100375.28;5009000;28;20054;-78
2023/03/11 11:33:28;;;;;;;7.40;3.08;;;;;;;6.07;58.26;100386.91;5002356;28;20062;-78
2023/03/11 11:35:58;;;;;;;5.40;2.78;;;;;;;6.04;57.45;100376.78;5003958;28;20112;-77
2023/03/11 11:38:28;;;;;;;7.32;3.05;;;;;;;6.15;57.83;100388.81;5001960;28;20047;-79
2023/03/11 11:40:58;;;;;;;10.30;4.15;;;;;;;6.19;58.14;100396.19;5005175;28;20053;-78
2023/03/11 11:43:36;;;;;;;5.93;2.63;;;;;;;5.87;57.00;100377.34;5004601;28;20145;-78
2023/03/11 11:46:07;;;;;;;10.93;3.08;;;;;;;5.98;56.69;100372.91;5004792;28;20490;-78
2023/03/11 11:48:44;;;;;;;7.10;2.85;;;;;;;6.01;57.93;100366.66;5003163;28;20469;-77
2023/03/11 11:51:18;;;;;;;6.38;3.00;;;;;;;6.37;58.96;100393.78;4992409;28;20142;-78
2023/03/11 11:53:47;;;;;;;4.97;2.35;;;;;;;6.75;58.93;100379.16;4999649;28;20047;-79
2023/03/11 11:56:14;;;;;;;7.18;2.85;;;;;;;6.63;57.86;100375.84;4995595;28;20069;-79
2023/03/11 11:58:42;;;;;;;8.40;2.80;;;;;;;6.39;57.93;100376.28;4999058;28;20047;-80
2023/03/11 12:01:15;;;;;;;5.25;2.70;;;;;;;6.56;58.30;100374.78;4999217;28;20054;-77
2023/03/11 12:04:02;;;;;;;8.95;4.25;;;;;;;6.48;57.91;100370.28;4987751;28;20066;-79
2023/03/11 12:06:34;;;;;;;9.65;3.67;;;;;;;6.47;58.31;100381.63;4999989;28;20544;-79
2023/03/11 12:09:22;;;;;;;7.95;2.92;;;;;;;6.92;58.03;100387.09;4997318;28;20070;-79
2023/03/11 12:11:56;;;;;;;5.63;2.50;;;;;;;7.39;56.71;100375.91;4992382;28;20061;-79
2023/03/11 12:14:30;;;;;;;7.53;2.78;;;;;;;7.48;56.27;100375.06;4999409;28;20054;-79
2023/03/11 12:17:00;;;;;;;6.53;2.60;;;;;;;7.56;55.83;100368.16;5002117;28;20106;-79
2023/03/11 12:19:34;;;;;;;9.05;2.60;;;;;;;7.66;56.15;100374.16;4995275;28;20097;-78
2023/03/11 12:22:37;;;;;;;5.47;2.08;;;;;;;7.30;55.48;100370.56;4999703;28;20137;-78
2023/03/11 12:25:21;;;;;;;8.25;2.22;;;;;;;7.13;56.05;100392.09;4991388;28;20109;-75
2023/03/11 12:27:52;;;;;;;13.13;3.53;;;;;;;7.12;57.77;100393.06;4998405;28;20046;-78
2023/03/11 12:30:25;;;;;;;6.47;2.58;;;;;;;7.04;57.98;100386.94;5001186;28;20049;-79
2023/03/11 12:32:56;;;;;;;6.43;2.35;;;;;;;6.78;57.25;100390.09;5003400;28;20042;-78
2023/03/11 12:35:26;;;;;;;6.55;2.33;;;;;;;6.55;57.42;100375.75;4998950;28;20125;-80
2023/03/11 12:38:05;;;;;;;4.70;2.47;;;;;;;6.82;57.09;100380.25;5007556;28;20054;-80
2023/03/11 12:40:49;;;;;;;5.28;2.80;;;;;;;7.01;57.92;100387.22;5002900;28;20117;-80
2023/03/11 12:43:29;;;;;;;9.20;2.55;;;;;;;6.72;58.53;100389.81;4999637;28;20081;-79
2023/03/11 12:45:58;;;;;;;8.40;3.30;;;;;;;7.02;59.24;100384.47;5002548;28;20431;-80
2023/03/11 12:48:36;;;;;;;7.18;2.38;;;;;;;6.74;58.65;100373.13;4994288;28;20465;-79
2023/03/11 12:51:04;;;;;;;4.07;2.78;;;;;;;6.78;58.86;100376.28;5000355;28;20082;-78
2023/03/11 12:53:46;;;;;;;8.52;2.65;;;;;;;6.92;58.25;100368.88;5003370;28;20050;-80
2023/03/11 12:56:26;;;;;;;7.40;3.00;;;;;;;6.66;58.70;100378.19;5005192;28;20230;-78
2023/03/11 12:59:10;;;;;;;6.85;3.35;;;;;;;6.38;59.15;100385.03;5004627;28;20077;-79
2023/03/11 13:01:50;;;;;;;12.32;3.80;;;;;;;6.56;60.00;100390.38;5001406;28;20085;-80
2023/03/11 13:04:37;;;;;;;12.43;3.55;;;;;;;6.26;60.15;100370.50;5006593;28;20058;-79
2023/03/11 13:07:33;;;;;;;6.25;3.20;;;;;;;6.42;59.79;100370.00;5005552;28;20054;-80
2023/03/11 13:10:05;;;;;;;5.88;3.20;;;;;;;6.38;60.00;100379.81;5006510;28;20117;-78
2023/03/11 13:12:43;;;;;;;7.63;3.70;;;;;;;6.19;59.56;100374.59;5002205;28;20070;-81
2023/03/11 13:15:29;;;;;;;11.10;4.00;;;;;;;6.44;59.43;100371.50;5010510;28;20058;-79
2023/03/11 13:18:00;;;;;;;8.68;3.60;;;;;;;6.32;59.45;100373.38;5007757;28;20055;-80
2023/03/11 13:21:00;;;;;;;10.70;3.75;;;;;;;6.02;60.44;100370.88;5007248;28;20109;-79
2023/03/11 13:23:33;;;;;;;12.30;4.25;;;;;;;5.95;60.60;100372.38;5003305;28;20489;-81
2023/03/11 13:26:36;;;;;;;7.45;3.70;;;;;;;5.88;60.35;100366.03;5012536;28;20473;-79
2023/03/11 13:29:35;;;;;;;13.00;3.88;;;;;;;5.64;60.15;100376.75;5008285;28;20309;-81
2023/03/11 13:32:29;;;;;;;8.25;3.53;;;;;;;5.96;61.20;100381.81;5011201;28;20057;-79
2023/03/11 13:35:10;;;;;;;9.70;3.78;;;;;;;6.03;61.20;100385.50;5011641;28;20073;-81
2023/03/11 13:37:46;;;;;;;8.73;3.53;;;;;;;5.96;61.67;100379.19;5006639;28;20049;-83
2023/03/11 13:40:26;;;;;;;8.90;3.70;;;;;;;5.93;60.96;100384.66;5006168;28;20085;-81
2023/03/11 13:42:57;;;;;;;10.02;3.53;;;;;;;5.94;60.56;100375.91;4995171;28;20081;-81
2023/03/11 13:45:29;;;;;;;8.57;3.80;;;;;;;6.02;60.71;100376.06;5010487;28;20050;-80
2023/03/11 13:48:00;;;;;;;11.93;3.90;;;;;;;6.18;61.10;100378.97;5007161;28;20074;-80
2023/03/11 13:50:33;;;;;;;13.52;3.75;;;;;;;6.01;61.16;100371.84;4992426;28;20081;-80
2023/03/11 13:53:01;;;;;;;;;;;;;;;5.97;61.17;100379.06;4999491;28;20054;-80
2023/03/11 13:55:33;;;;;;;18.15;4.20;;;;;;;5.57;62.02;100379.03;5006276;28;19921;-81
2023/03/11 13:58:00;;;;;;;9.43;3.58;;;;;;;5.90;61.74;100375.34;5002208;28;20204;-81
2023/03/11 14:00:28;;;;;;;9.00;3.88;;;;;;;5.80;60.26;100360.66;4995974;28;20042;-82
2023/03/11 14:02:57;;;;;;;7.63;3.50;;;;;;;5.74;60.51;100363.78;4989137;28;20047;-81
2023/03/11 14:05:25;;;;;;;7.18;3.60;;;;;;;5.84;60.82;100364.63;5000968;28;20089;-81
2023/03/11 14:07:53;;;;;;;9.88;3.80;;;;;;;5.90;60.49;100372.75;5010880;28;20050;-79
2023/03/11 14:10:27;;;;;;;7.25;3.30;;;;;;;5.88;59.85;100377.22;4995096;28;20077;-81
2023/03/11 14:13:06;;;;;;;7.85;3.17;;;;;;;6.01;59.20;100373.63;4996042;28;20042;-81
2023/03/11 14:15:44;;;;;;;4.30;3.25;;;;;;;5.98;59.00;100377.28;4999168;28;20345;-81
2023/03/11 14:18:28;;;;;;;6.45;3.20;;;;;;;6.06;59.46;100359.28;4994752;28;20111;-84
2023/03/11 14:21:06;;;;;;;5.75;3.80;;;;;;;5.90;58.50;100375.34;5004314;28;20046;-83
2023/03/11 14:23:39;;;;;;;7.88;3.55;;;;;;;5.91;58.19;100365.78;4997377;28;20054;-83
2023/03/11 14:26:08;;;;;;;6.93;3.50;;;;;;;5.97;58.93;100380.84;5006066;28;20520;-81
2023/03/11 14:28:39;;;;;;;6.22;2.90;;;;;;;6.04;59.04;100381.97;5002763;28;20110;-83
2023/03/11 14:31:07;;;;;;;10.13;3.90;;;;;;;6.23;59.47;100386.34;5008124;28;20061;-83
2023/03/11 14:33:33;;;;;;;8.65;3.45;;;;;;;6.09;58.70;100384.16;4999028;28;20083;-81
2023/03/11 14:36:04;;;;;;;7.47;3.15;;;;;;;6.10;58.01;100386.63;5006155;28;20081;-80
2023/03/11 14:38:32;;;;;;;10.65;3.38;;;;;;;6.16;58.33;100382.66;5003878;28;20049;-80
2023/03/11 14:41:02;;;;;;;6.90;3.17;;;;;;;6.23;59.03;100400.19;5012838;28;20088;-80
2023/03/11 14:43:33;;;;;;;5.00;3.08;;;;;;;6.25;58.47;100393.06;5003035;28;20078;-80
2023/03/11 14:46:04;;;;;;;7.80;3.30;;;;;;;6.16;58.85;100391.25;5004043;28;20400;-84
2023/03/11 14:48:36;;;;;;;5.82;3.10;;;;;;;6.29;59.11;100402.25;4995997;28;20121;-84
2023/03/11 14:51:06;;;;;;;4.07;2.95;;;;;;;6.37;59.30;100392.97;5001837;28;20082;-80
2023/03/11 14:53:40;;;;;;;10.00;3.15;;;;;;;6.43;59.37;100390.66;4996903;28;20073;-80
2023/03/11 14:56:16;;;;;;;4.88;3.22;;;;;;;6.47;59.23;100393.78;5012496;28;20050;-82
2023/03/11 14:58:47;;;;;;;5.88;3.15;;;;;;;6.39;57.83;100384.06;5010649;28;20049;-81
2023/03/11 15:01:19;;;;;;;5.70;3.10;;;;;;;6.38;57.71;100389.41;5001775;28;20072;-81
2023/03/11 15:03:49;;;;;;;4.13;2.80;;;;;;;6.19;57.40;100378.00;5001925;28;20043;-80
2023/03/11 15:06:17;;;;;;;7.47;3.17;;;;;;;6.03;58.05;100382.91;5000448;28;20141;-80
2023/03/11 15:08:46;;;;;;;8.98;3.20;;;;;;;5.95;58.93;100399.16;4998002;28;20081;-80
2023/03/11 15:11:24;;;;;;;6.30;3.20;;;;;;;5.96;59.29;100407.78;4996022;28;20070;-80
2023/03/11 15:13:51;;;;;;;7.80;3.08;;;;;;;5.89;59.12;100398.84;4998525;28;20043;-80
2023/03/11 15:16:40;;;;;;;7.68;3.58;;;;;;;5.89;60.08;100411.84;4998748;28;20102;-80
2023/03/11 15:19:30;;;;;;;6.25;2.92;;;;;;;5.98;60.10;100403.25;4996646;28;20050;-80
2023/03/11 15:21:58;;;;;;;9.65;3.40;;;;;;;6.00;59.48;100401.34;4996859;28;20054;-80